createdAt,value
2018-01-03T00:00:32.559Z,2.15
2018-01-03T00:02:59.820Z,2.45
2018-01-03T00:05:27.068Z,2.30
2018-01-03T00:07:54.321Z,3.87
2018-01-03T00:10:21.580Z,2.87
2018-01-03T00:12:48.784Z,2.83
2018-01-03T00:15:16.928Z,2.00
2018-01-03T00:17:44.891Z,1.80
2018-01-03T00:20:12.161Z,2.72
2018-01-03T00:22:39.419Z,3.20
2018-01-03T00:25:06.744Z,2.40
2018-01-03T00:27:34.000Z,1.80
2018-01-03T00:30:01.234Z,1.77
2018-01-03T00:32:28.497Z,2.50
2018-01-03T00:34:55.762Z,1.75
2018-01-03T00:37:23.014Z,2.22
2018-01-03T00:39:50.225Z,1.83
2018-01-03T00:42:17.484Z,2.45
2018-01-03T00:44:44.704Z,2.15
2018-01-03T00:47:11.973Z,4.00
2018-01-03T00:49:39.184Z,2.35
2018-01-03T00:52:06.766Z,1.15
2018-01-03T00:54:34.067Z,1.12
2018-01-03T00:57:01.277Z,1.15
2018-01-03T00:59:28.492Z,1.40
2018-01-03T01:01:55.724Z,1.45
2018-01-03T01:04:22.941Z,5.22
2018-01-03T01:06:50.188Z,2.55
2018-01-03T01:09:17.420Z,1.20
2018-01-03T01:11:45.513Z,1.60
2018-01-03T01:14:12.910Z,1.17
2018-01-03T01:16:40.514Z,1.20
2018-01-03T01:19:07.832Z,2.75
2018-01-03T01:21:35.957Z,1.23
2018-01-03T01:24:03.189Z,1.40
2018-01-03T01:26:30.416Z,1.10
2018-01-03T01:28:57.631Z,1.17
2018-01-03T01:31:24.870Z,0.85
2018-01-03T01:33:52.136Z,1.10
2018-01-03T01:36:19.400Z,1.58
2018-01-03T01:38:46.646Z,2.12
2018-01-03T01:41:13.872Z,1.08
2018-01-03T01:43:42.243Z,1.00
2018-01-03T01:46:10.857Z,1.42
2018-01-03T01:48:38.096Z,0.90
2018-01-03T01:51:05.355Z,1.23
2018-01-03T01:53:32.580Z,1.05
2018-01-03T01:55:59.805Z,1.67
2018-01-03T01:58:27.047Z,0.70
2018-01-03T02:00:54.332Z,0.70
2018-01-03T02:03:21.569Z,2.85
2018-01-03T02:05:48.807Z,0.90
2018-01-03T02:08:16.040Z,1.20
2018-01-03T02:10:43.837Z,1.50
2018-01-03T02:13:11.066Z,1.10
2018-01-03T02:15:38.291Z,0.80
2018-01-03T02:18:05.526Z,1.00
2018-01-03T02:20:32.745Z,3.97
2018-01-03T02:22:59.969Z,0.73
2018-01-03T02:25:27.191Z,0.80
2018-01-03T02:27:55.081Z,1.23
2018-01-03T02:30:23.132Z,1.90
2018-01-03T02:32:50.371Z,1.00
2018-01-03T02:35:18.323Z,0.77
2018-01-03T02:37:45.504Z,0.90
2018-01-03T02:40:12.716Z,2.70
2018-01-03T02:42:39.981Z,1.15
2018-01-03T02:45:07.272Z,0.90
2018-01-03T02:47:34.500Z,0.98
2018-01-03T02:50:01.728Z,1.40
2018-01-03T02:52:29.356Z,1.10
2018-01-03T02:54:56.584Z,1.00
2018-01-03T02:57:24.045Z,1.15
2018-01-03T02:59:51.342Z,1.05
2018-01-03T03:02:18.574Z,1.02
2018-01-03T03:04:45.798Z,1.30
2018-01-03T03:07:13.102Z,1.60
2018-01-03T03:09:40.322Z,2.50
2018-01-03T03:12:07.576Z,1.25
2018-01-03T03:14:34.810Z,1.08
2018-01-03T03:17:02.028Z,1.10
2018-01-03T03:19:29.263Z,0.90
2018-01-03T03:21:57.298Z,1.02
2018-01-03T03:24:24.532Z,1.00
2018-01-03T03:26:52.648Z,1.50
2018-01-03T03:29:19.908Z,1.17
2018-01-03T03:31:47.161Z,1.52
2018-01-03T03:34:14.392Z,0.93
2018-01-03T03:36:41.641Z,1.70
2018-01-03T03:39:08.868Z,0.85
2018-01-03T03:41:36.098Z,1.10
2018-01-03T03:44:03.407Z,1.00
2018-01-03T03:46:30.667Z,1.00
2018-01-03T03:48:57.899Z,0.90
2018-01-03T03:51:25.678Z,1.15
2018-01-03T03:53:52.900Z,1.27
2018-01-03T03:56:20.124Z,0.80
2018-01-03T03:58:47.374Z,0.80
2018-01-03T04:01:14.591Z,1.00
2018-01-03T04:03:41.835Z,0.88
2018-01-03T04:06:09.057Z,2.25
2018-01-03T04:08:36.280Z,1.25
2018-01-03T04:11:03.498Z,0.90
2018-01-03T04:13:30.730Z,0.95
2018-01-03T04:15:57.986Z,1.35
2018-01-03T04:18:25.202Z,0.80
2018-01-03T04:20:53.102Z,0.80
2018-01-03T04:23:20.324Z,1.33
2018-01-03T04:25:47.564Z,0.90
2018-01-03T04:28:14.791Z,0.90
2018-01-03T04:30:42.027Z,0.90
2018-01-03T04:33:09.396Z,0.70
2018-01-03T04:35:36.885Z,0.80
2018-01-03T04:38:04.133Z,0.70
2018-01-03T04:40:31.825Z,0.90
2018-01-03T04:42:59.051Z,1.48
2018-01-03T04:45:26.301Z,0.80
2018-01-03T04:47:53.504Z,1.03
2018-01-03T04:50:20.770Z,1.08
2018-01-03T04:52:47.999Z,0.80
2018-01-03T04:55:16.188Z,0.80
2018-01-03T04:57:43.426Z,3.10
2018-01-03T05:00:10.660Z,0.70
2018-01-03T05:02:37.892Z,1.50
2018-01-03T05:05:05.116Z,0.90
2018-01-03T05:07:32.339Z,0.80
2018-01-03T05:09:59.574Z,0.70
2018-01-03T05:12:26.791Z,0.80
2018-01-03T05:14:54.018Z,0.70
2018-01-03T05:17:21.248Z,1.63
2018-01-03T05:19:48.472Z,0.70
2018-01-03T05:22:15.684Z,0.97
2018-01-03T05:24:43.019Z,0.97
2018-01-03T05:27:10.256Z,0.97
2018-01-03T05:29:37.492Z,0.60
2018-01-03T05:32:04.715Z,0.80
2018-01-03T05:34:31.936Z,1.10
2018-01-03T05:36:59.167Z,1.20
2018-01-03T05:39:26.400Z,0.70
2018-01-03T05:41:53.781Z,0.73
2018-01-03T05:44:21.012Z,1.10
2018-01-03T05:46:48.245Z,0.70
2018-01-03T05:49:15.472Z,0.70
2018-01-03T05:51:42.752Z,1.07
2018-01-03T05:54:09.980Z,0.60
2018-01-03T05:56:37.220Z,2.20
2018-01-03T05:59:04.452Z,0.60
2018-01-03T06:01:31.692Z,0.75
2018-01-03T06:03:58.908Z,0.97
2018-01-03T06:06:26.179Z,0.82
2018-01-03T06:08:53.401Z,0.80
2018-01-03T06:11:20.636Z,0.90
2018-01-03T06:13:47.864Z,0.70
2018-01-03T06:16:15.097Z,1.35
2018-01-03T06:18:42.323Z,0.70
2018-01-03T06:21:09.553Z,0.70
2018-01-03T06:23:37.593Z,2.15
2018-01-03T06:26:04.824Z,0.67
2018-01-03T06:28:32.049Z,0.70
2018-01-03T06:30:59.281Z,0.70
2018-01-03T06:33:26.503Z,1.10
2018-01-03T06:35:53.722Z,0.73
2018-01-03T06:38:20.951Z,0.83
2018-01-03T06:40:48.777Z,0.60
2018-01-03T06:43:15.996Z,1.10
2018-01-03T06:45:43.246Z,0.77
2018-01-03T06:48:10.913Z,0.80
2018-01-03T06:50:38.128Z,0.70
2018-01-03T06:53:05.886Z,0.70
2018-01-03T06:55:33.732Z,0.67
2018-01-03T06:58:01.872Z,0.70
2018-01-03T07:00:29.991Z,0.80
2018-01-03T07:02:57.225Z,0.80
2018-01-03T07:05:24.501Z,1.57
2018-01-03T07:07:52.853Z,1.73
2018-01-03T07:10:20.107Z,2.20
2018-01-03T07:12:47.323Z,3.00
2018-01-03T07:15:14.543Z,1.00
2018-01-03T07:17:41.772Z,3.45
2018-01-03T07:20:09.034Z,1.57
2018-01-03T07:22:36.477Z,1.03
2018-01-03T07:25:03.708Z,4.28
2018-01-03T07:27:30.944Z,4.90
2018-01-03T07:29:58.192Z,1.17
2018-01-03T07:32:25.468Z,1.40
2018-01-03T07:34:52.721Z,3.33
2018-01-03T07:37:19.957Z,1.50
2018-01-03T07:39:47.209Z,2.03
2018-01-03T07:42:14.460Z,2.47
2018-01-03T07:44:42.576Z,5.00
2018-01-03T07:47:09.786Z,3.20
2018-01-03T07:49:37.026Z,2.95
2018-01-03T07:52:04.239Z,4.15
2018-01-03T07:54:31.476Z,3.08
2018-01-03T07:56:58.701Z,3.55
2018-01-03T07:59:25.916Z,6.18
2018-01-03T08:01:53.142Z,3.70
2018-01-03T08:04:20.374Z,3.20
2018-01-03T08:06:47.600Z,3.03
2018-01-03T08:09:14.824Z,2.90
2018-01-03T08:11:42.049Z,1.87
2018-01-03T08:14:09.284Z,3.47
2018-01-03T08:16:36.510Z,4.20
2018-01-03T08:19:03.728Z,4.55
2018-01-03T08:21:30.954Z,7.05
2018-01-03T08:23:58.184Z,2.92
2018-01-03T08:26:25.412Z,6.15
2018-01-03T08:28:52.632Z,2.05
2018-01-03T08:31:19.848Z,3.33
2018-01-03T08:33:47.127Z,3.47
2018-01-03T08:36:14.340Z,7.57
2018-01-03T08:38:41.563Z,8.52
2018-01-03T08:41:08.787Z,5.35
2018-01-03T08:43:36.013Z,5.37
2018-01-03T08:46:03.236Z,3.08
2018-01-03T08:48:30.478Z,1.42
2018-01-03T08:50:57.694Z,8.95
2018-01-03T08:53:24.919Z,4.95
2018-01-03T08:55:52.150Z,4.28
2018-01-03T08:58:19.369Z,4.55
2018-01-03T09:00:46.613Z,2.72
2018-01-03T09:03:13.828Z,3.25
2018-01-03T09:05:41.057Z,2.33
2018-01-03T09:08:08.284Z,3.80
2018-01-03T09:10:35.508Z,3.08
2018-01-03T09:13:02.778Z,2.08
2018-01-03T09:15:30.044Z,2.78
2018-01-03T09:17:57.256Z,3.60
2018-01-03T09:20:24.491Z,3.28
2018-01-03T09:22:51.777Z,1.90
2018-01-03T09:25:19.001Z,1.27
2018-01-03T09:27:46.223Z,4.00
2018-01-03T09:30:13.544Z,2.72
2018-01-03T09:32:40.760Z,1.08
2018-01-03T09:35:07.992Z,3.45
2018-01-03T09:37:35.217Z,3.35
2018-01-03T09:40:02.445Z,9.27
2018-01-03T09:42:29.667Z,1.80
2018-01-03T09:44:56.904Z,3.30
2018-01-03T09:47:24.119Z,1.85
2018-01-03T09:49:51.358Z,9.13
2018-01-03T09:52:18.610Z,2.75
2018-01-03T09:54:45.834Z,1.48
2018-01-03T09:57:13.066Z,0.90
2018-01-03T09:59:40.285Z,1.17
2018-01-03T10:02:07.504Z,2.15
2018-01-03T10:04:34.725Z,2.95
2018-01-03T10:07:02.152Z,1.10
2018-01-03T10:09:29.366Z,1.75
2018-01-03T10:11:56.596Z,0.80
2018-01-03T10:14:23.825Z,1.98
2018-01-03T10:16:51.044Z,1.15
2018-01-03T10:19:18.290Z,1.10
2018-01-03T10:21:45.493Z,6.80
2018-01-03T10:24:12.717Z,1.27
2018-01-03T10:26:39.956Z,1.35
2018-01-03T10:29:07.180Z,1.20
2018-01-03T10:31:34.419Z,0.80
2018-01-03T10:34:01.633Z,1.48
2018-01-03T10:36:28.860Z,1.45
2018-01-03T10:38:56.264Z,0.90
2018-01-03T10:41:23.536Z,0.70
2018-01-03T10:43:50.748Z,0.80
2018-01-03T10:46:17.993Z,1.27
2018-01-03T10:48:45.215Z,3.90
2018-01-03T10:51:12.645Z,2.45
2018-01-03T10:53:40.704Z,1.50
2018-01-03T10:56:07.931Z,1.10
2018-01-03T10:58:35.198Z,2.00
2018-01-03T11:01:02.411Z,3.22
2018-01-03T11:03:32.424Z,0.88
2018-01-03T11:05:59.676Z,1.00
2018-01-03T11:08:26.892Z,1.48
2018-01-03T11:10:54.215Z,1.20
2018-01-03T11:13:21.449Z,5.20
2018-01-03T11:15:48.664Z,4.15
2018-01-03T11:18:15.900Z,1.75
2018-01-03T11:20:43.116Z,1.20
2018-01-03T11:23:10.341Z,2.17
2018-01-03T11:25:37.569Z,2.25
2018-01-03T11:28:04.880Z,1.60
2018-01-03T11:30:32.022Z,2.92
2018-01-03T11:32:59.289Z,2.22
2018-01-03T11:35:26.506Z,2.97
2018-01-03T11:37:53.738Z,2.28
2018-01-03T11:40:20.953Z,1.55
2018-01-03T11:42:48.180Z,4.93
2018-01-03T11:45:15.401Z,5.30
2018-01-03T11:47:42.647Z,6.80
2018-01-03T11:50:09.902Z,6.32
2018-01-03T11:52:37.121Z,9.52
2018-01-03T11:55:04.351Z,4.12
2018-01-03T11:57:31.576Z,4.30
2018-01-03T11:59:58.802Z,5.87
2018-01-03T12:02:26.028Z,3.92
2018-01-03T12:04:53.250Z,3.40
2018-01-03T12:07:20.477Z,2.40
2018-01-03T12:09:47.697Z,3.42
2018-01-03T12:12:14.920Z,4.25
2018-01-03T12:14:42.149Z,5.12
2018-01-03T12:17:09.393Z,5.65
2018-01-03T12:19:36.620Z,3.35
2018-01-03T12:22:04.168Z,7.45
2018-01-03T12:24:31.382Z,9.55
2018-01-03T12:26:58.604Z,5.57
2018-01-03T12:29:25.900Z,4.85
2018-01-03T12:31:53.124Z,2.15
2018-01-03T12:34:20.352Z,4.12
2018-01-03T12:36:47.573Z,1.83
2018-01-03T12:39:14.801Z,6.53
2018-01-03T12:41:42.037Z,7.50
2018-01-03T12:44:09.256Z,5.82
2018-01-03T12:46:36.480Z,6.10
2018-01-03T12:49:03.710Z,5.93
2018-01-03T12:51:30.934Z,5.72
2018-01-03T12:53:58.166Z,7.20
2018-01-03T12:56:25.407Z,7.62
2018-01-03T12:58:52.627Z,8.55
2018-01-03T13:01:19.849Z,5.85
2018-01-03T13:03:47.091Z,6.90
2018-01-03T13:06:14.315Z,6.28
2018-01-03T13:08:41.538Z,7.85
2018-01-03T13:11:08.761Z,19.62
2018-01-03T13:13:35.988Z,8.60
2018-01-03T13:16:03.207Z,6.60
2018-01-03T13:18:30.470Z,7.03
2018-01-03T13:23:31.395Z,4.60
2018-01-03T13:25:58.640Z,4.75
2018-01-03T13:28:25.877Z,7.87
2018-01-03T13:30:53.097Z,8.48
2018-01-03T13:33:20.324Z,7.47
2018-01-03T13:35:47.536Z,8.52
2018-01-03T13:38:14.760Z,9.52
2018-01-03T13:40:41.999Z,8.02
2018-01-03T13:43:09.216Z,5.40
2018-01-03T13:45:36.440Z,6.85
2018-01-03T13:48:03.665Z,8.93
2018-01-03T13:50:30.895Z,11.57
2018-01-03T13:52:58.116Z,7.65
2018-01-03T13:55:25.348Z,6.43
2018-01-03T13:57:52.559Z,9.75
2018-01-03T14:00:19.793Z,10.63
2018-01-03T14:02:47.020Z,10.60
2018-01-03T14:05:14.260Z,12.35
2018-01-03T14:07:41.487Z,7.85
2018-01-03T14:10:08.724Z,10.35
2018-01-03T14:12:35.947Z,11.48
2018-01-03T14:15:03.221Z,10.23
2018-01-03T14:17:30.441Z,14.57
2018-01-03T14:19:57.679Z,9.93
2018-01-03T14:22:24.898Z,6.43
2018-01-03T14:24:52.132Z,9.75
2018-01-03T14:27:19.353Z,5.68
2018-01-03T14:29:46.588Z,9.10
2018-01-03T14:32:13.814Z,9.77
2018-01-03T14:34:41.044Z,6.12
2018-01-03T14:37:08.271Z,6.25
2018-01-03T14:39:35.497Z,8.57
2018-01-03T14:42:03.016Z,6.60
2018-01-03T14:44:30.270Z,4.80
2018-01-03T14:46:57.644Z,5.40
2018-01-03T14:49:24.866Z,6.90
2018-01-03T14:51:52.129Z,8.18
2018-01-03T14:54:19.407Z,6.30
2018-01-03T14:56:46.632Z,11.57
2018-01-03T14:59:14.025Z,11.55
2018-01-03T15:01:41.256Z,7.12
2018-01-03T15:04:08.495Z,7.03
2018-01-03T15:06:35.723Z,9.40
2018-01-03T15:09:02.993Z,12.20
2018-01-03T15:11:30.255Z,14.75
2018-01-03T15:13:57.473Z,8.35
2018-01-03T15:16:24.738Z,11.40
2018-01-03T15:18:51.946Z,7.97
2018-01-03T15:21:19.181Z,11.52
2018-01-03T15:23:46.406Z,15.07
2018-01-03T15:26:13.643Z,8.32
2018-01-03T15:28:40.864Z,5.50
2018-01-03T15:31:08.141Z,6.70
2018-01-03T15:33:35.370Z,11.35
2018-01-03T15:36:02.596Z,7.50
2018-01-03T15:38:29.822Z,10.60
2018-01-03T15:40:57.052Z,12.13
2018-01-03T15:43:24.275Z,10.85
2018-01-03T15:45:51.519Z,21.25
2018-01-03T15:48:18.785Z,7.60
2018-01-03T15:50:46.133Z,13.75
2018-01-03T15:53:13.366Z,4.20
2018-01-03T15:55:40.635Z,13.23
2018-01-03T15:58:07.860Z,11.43
2018-01-03T16:00:35.076Z,6.35
2018-01-03T16:03:03.226Z,5.53
2018-01-03T16:05:30.446Z,7.00
2018-01-03T16:07:57.711Z,7.50
2018-01-03T16:10:24.962Z,7.50
2018-01-03T16:12:52.194Z,12.18
2018-01-03T16:15:19.470Z,7.80
2018-01-03T16:17:46.697Z,11.32
2018-01-03T16:20:13.920Z,13.27
2018-01-03T16:22:41.194Z,11.00
2018-01-03T16:25:08.416Z,8.52
2018-01-03T16:30:09.232Z,8.50
2018-01-03T16:32:36.585Z,13.43
2018-01-03T16:35:03.867Z,12.50
2018-01-03T16:37:31.095Z,17.87
2018-01-03T16:39:58.317Z,9.57
2018-01-03T16:42:25.548Z,20.55
2018-01-03T16:44:52.770Z,13.02
2018-01-03T16:47:20.006Z,12.18
2018-01-03T16:49:47.233Z,21.58
2018-01-03T16:52:20.255Z,9.23
2018-01-03T16:54:47.526Z,10.23
2018-01-03T16:57:14.744Z,12.73
2018-01-03T16:59:41.966Z,9.77
2018-01-03T17:02:09.247Z,12.00
2018-01-03T17:04:36.498Z,10.15
2018-01-03T17:07:04.246Z,13.40
2018-01-03T17:09:31.519Z,15.43
2018-01-03T17:11:58.765Z,23.50
2018-01-03T17:14:25.996Z,11.95
2018-01-03T17:16:53.274Z,12.70
2018-01-03T17:19:20.492Z,11.15
2018-01-03T17:21:47.763Z,11.85
2018-01-03T17:24:15.057Z,9.30
2018-01-03T17:26:42.262Z,13.05
2018-01-03T17:29:09.543Z,14.18
2018-01-03T17:31:36.807Z,15.93
2018-01-03T17:34:04.060Z,12.93
2018-01-03T17:36:31.322Z,8.38
2018-01-03T17:38:58.596Z,13.77
2018-01-03T17:41:25.855Z,13.30
2018-01-03T17:43:53.087Z,13.10
2018-01-03T17:46:20.385Z,20.08
2018-01-03T17:48:47.648Z,10.63
2018-01-03T17:51:14.852Z,13.77
2018-01-03T17:53:42.144Z,11.50
2018-01-03T17:56:09.411Z,12.52
2018-01-03T17:58:36.629Z,11.38
2018-01-03T18:01:03.851Z,7.57
2018-01-03T18:03:31.139Z,26.83
2018-01-03T18:05:58.406Z,11.40
2018-01-03T18:08:25.625Z,12.68
2018-01-03T18:10:52.903Z,11.90
2018-01-03T18:13:20.122Z,10.68
2018-01-03T18:15:47.408Z,11.12
2018-01-03T18:18:15.584Z,10.48
2018-01-03T18:20:42.847Z,12.05
2018-01-03T18:23:10.104Z,15.55
2018-01-03T18:25:37.320Z,9.43
2018-01-03T18:28:04.595Z,13.62
2018-01-03T18:30:31.912Z,7.43
2018-01-03T18:32:59.191Z,13.00
2018-01-03T18:35:26.464Z,13.45
2018-01-03T18:37:53.837Z,21.95
2018-01-03T18:40:21.073Z,12.05
2018-01-03T18:42:48.291Z,11.73
2018-01-03T18:45:15.579Z,18.23
2018-01-03T18:47:42.847Z,16.70
2018-01-03T18:50:10.106Z,9.30
2018-01-03T18:52:37.458Z,13.35
2018-01-03T18:55:04.732Z,16.62
2018-01-03T18:57:31.993Z,14.07
2018-01-03T18:59:59.263Z,14.43
2018-01-03T19:02:26.524Z,13.32
2018-01-03T19:04:53.849Z,7.40
2018-01-03T19:07:21.113Z,21.15
2018-01-03T19:09:48.388Z,8.40
2018-01-03T19:12:15.671Z,14.38
2018-01-03T19:14:42.940Z,9.20
2018-01-03T19:17:10.200Z,10.55
2018-01-03T19:19:37.483Z,16.58
2018-01-03T19:22:04.736Z,10.45
2018-01-03T19:24:32.012Z,11.48
2018-01-03T19:26:59.287Z,8.00
2018-01-03T19:29:26.582Z,17.67
2018-01-03T19:31:53.836Z,5.82
2018-01-03T19:34:21.329Z,10.57
2018-01-03T19:36:48.601Z,8.57
2018-01-03T19:39:15.855Z,8.88
2018-01-03T19:41:43.133Z,13.27
2018-01-03T19:44:10.392Z,4.10
2018-01-03T19:46:37.668Z,10.50
2018-01-03T19:49:04.930Z,4.95
2018-01-03T19:51:32.203Z,10.10
2018-01-03T19:53:59.526Z,10.88
2018-01-03T19:56:26.814Z,6.70
2018-01-03T19:58:54.077Z,7.50
2018-01-03T20:01:21.402Z,16.25
2018-01-03T20:03:48.664Z,12.27
2018-01-03T20:06:15.943Z,11.73
2018-01-03T20:08:43.218Z,8.27
2018-01-03T20:11:10.496Z,12.48
2018-01-03T20:13:37.799Z,13.95
2018-01-03T20:16:05.069Z,8.45
2018-01-03T20:18:33.275Z,11.63
2018-01-03T20:21:00.558Z,14.90
2018-01-03T20:23:27.826Z,13.50
2018-01-03T20:25:55.254Z,15.98
2018-01-03T20:28:22.520Z,13.75
2018-01-03T20:30:49.795Z,11.73
2018-01-03T20:33:17.074Z,15.73
2018-01-03T20:35:44.338Z,16.08
2018-01-03T20:38:11.600Z,12.82
2018-01-03T20:40:38.873Z,11.52
2018-01-03T20:43:06.172Z,14.00
2018-01-03T20:45:33.963Z,16.17
2018-01-03T20:48:01.253Z,21.52
2018-01-03T20:50:28.563Z,16.20
2018-01-03T20:52:55.811Z,13.15
2018-01-03T20:55:23.067Z,9.80
2018-01-03T20:57:50.399Z,13.45
2018-01-03T21:00:17.653Z,18.67
2018-01-03T21:02:44.923Z,13.43
2018-01-03T21:05:12.193Z,20.88
2018-01-03T21:07:39.486Z,11.70
2018-01-03T21:10:06.754Z,13.43
2018-01-03T21:12:34.071Z,11.38
2018-01-03T21:15:01.339Z,15.63
2018-01-03T21:17:28.614Z,20.62
2018-01-03T21:19:56.709Z,14.55
2018-01-03T21:22:23.975Z,16.08
2018-01-03T21:24:51.248Z,12.65
2018-01-03T21:27:18.528Z,16.08
2018-01-03T21:29:45.782Z,23.02
2018-01-03T21:32:13.068Z,14.80
2018-01-03T21:34:40.336Z,11.95
2018-01-03T21:37:07.609Z,14.02
2018-01-03T21:39:34.872Z,16.02
2018-01-03T21:42:02.215Z,8.65
2018-01-03T21:44:29.472Z,9.30
2018-01-03T21:46:56.795Z,9.75
2018-01-03T21:49:24.970Z,10.57
2018-01-03T21:51:52.247Z,15.73
2018-01-03T21:54:19.504Z,16.52
2018-01-03T21:56:46.775Z,13.07
2018-01-03T22:02:39.991Z,12.98
2018-01-03T22:05:07.257Z,11.27
2018-01-03T22:07:34.523Z,24.05
2018-01-03T22:10:01.785Z,16.05
2018-01-03T22:12:29.056Z,20.08
2018-01-03T22:14:56.306Z,16.65
2018-01-03T22:17:23.568Z,8.70
2018-01-03T22:19:50.823Z,10.25
2018-01-03T22:22:18.136Z,7.10
2018-01-03T22:24:45.368Z,11.07
2018-01-03T22:27:12.676Z,10.27
2018-01-03T22:29:39.932Z,18.48
2018-01-03T22:32:07.184Z,16.60
2018-01-03T22:34:34.450Z,15.23
2018-01-03T22:37:01.720Z,10.23
2018-01-03T22:39:28.974Z,10.55
2018-01-03T22:41:56.226Z,10.00
2018-01-03T22:44:23.485Z,9.02
2018-01-03T22:46:50.740Z,10.32
2018-01-03T22:49:18.011Z,15.30
2018-01-03T22:51:45.272Z,13.98
2018-01-03T22:54:12.527Z,17.45
2018-01-03T22:56:39.770Z,9.27
2018-01-03T22:59:07.043Z,14.85
2018-01-03T23:01:34.299Z,15.85
2018-01-03T23:04:01.567Z,18.48
2018-01-03T23:06:28.825Z,22.80
2018-01-03T23:08:56.087Z,14.02
2018-01-03T23:11:23.351Z,12.50
2018-01-03T23:13:50.622Z,8.48
2018-01-03T23:16:17.872Z,12.57
2018-01-03T23:18:45.172Z,11.20
2018-01-03T23:21:12.404Z,21.58
2018-01-03T23:23:39.673Z,13.27
2018-01-03T23:26:06.931Z,7.57
2018-01-03T23:28:34.184Z,4.72
2018-01-03T23:31:01.436Z,6.82
2018-01-03T23:33:28.704Z,11.12
2018-01-03T23:35:55.963Z,7.55
2018-01-03T23:38:23.234Z,12.95
2018-01-03T23:40:50.491Z,9.70
2018-01-03T23:43:17.742Z,8.25
2018-01-03T23:45:45.023Z,5.45
2018-01-03T23:48:12.266Z,6.82
2018-01-03T23:50:39.487Z,12.43
2018-01-03T23:53:06.760Z,10.90
2018-01-03T23:55:34.032Z,12.20
2018-01-03T23:58:01.275Z,12.95
